createdAt,value
2018-09-08T00:04:15.615Z,17.3
2018-09-08T00:09:28.137Z,17.3
2018-09-08T00:14:27.844Z,17.2
2018-09-08T00:19:27.862Z,17.2
2018-09-08T00:24:27.981Z,17.2
2018-09-08T00:29:27.870Z,17.2
2018-09-08T00:34:27.864Z,17.2
2018-09-08T00:39:28.019Z,17.2
2018-09-08T00:44:30.819Z,17.2
2018-09-08T00:49:30.561Z,17.1
2018-09-08T00:54:43.569Z,17.1
2018-09-08T00:59:43.395Z,17.1
2018-09-08T01:04:43.290Z,17.1
2018-09-08T01:09:43.279Z,17.1
2018-09-08T01:14:43.411Z,17.1
2018-09-08T01:19:43.298Z,17.1
2018-09-08T01:24:43.497Z,17
2018-09-08T01:29:44.255Z,17.1
2018-09-08T01:34:44.020Z,17.1
2018-09-08T01:39:56.361Z,17.1
2018-09-08T01:44:56.221Z,17.1
2018-09-08T01:49:56.096Z,17
2018-09-08T01:54:56.095Z,17
2018-09-08T01:59:56.326Z,17
2018-09-08T02:04:56.083Z,17.1
2018-09-08T02:09:56.122Z,17
2018-09-08T02:14:56.104Z,17
2018-09-08T02:19:56.249Z,17
2018-09-08T02:24:56.601Z,17
2018-09-08T02:29:56.517Z,17
2018-09-08T02:34:56.351Z,17.1
2018-09-08T02:39:56.895Z,17
2018-09-08T02:44:56.646Z,17
2018-09-08T02:50:09.351Z,17
2018-09-08T02:55:09.298Z,16.9
2018-09-08T03:00:09.217Z,16.9
2018-09-08T03:05:09.229Z,16.8
2018-09-08T03:10:09.295Z,16.7
2018-09-08T03:15:09.109Z,16.7
2018-09-08T03:20:09.268Z,16.7
2018-09-08T03:25:09.214Z,16.7
2018-09-08T03:30:09.207Z,16.6
2018-09-08T03:35:21.368Z,16.6
2018-09-08T03:40:21.099Z,16.6
2018-09-08T03:45:21.319Z,16.6
2018-09-08T03:50:21.352Z,16.6
2018-09-08T03:55:21.270Z,16.7
2018-09-08T04:00:21.924Z,16.6
2018-09-08T04:05:21.871Z,16.6
2018-09-08T04:10:21.783Z,16.6
2018-09-08T04:15:21.837Z,16.6
2018-09-08T04:20:21.650Z,16.6
2018-09-08T04:25:21.680Z,16.6
2018-09-08T04:30:21.660Z,16.6
2018-09-08T04:35:25.000Z,16.7
2018-09-08T04:40:24.840Z,16.7
2018-09-08T04:45:37.285Z,16.7
2018-09-08T04:50:37.110Z,16.7
2018-09-08T04:55:37.144Z,16.7
2018-09-08T05:00:37.083Z,16.7
2018-09-08T05:05:37.082Z,16.7
2018-09-08T05:10:37.269Z,16.8
2018-09-08T05:15:37.305Z,16.8
2018-09-08T05:20:37.761Z,16.8
2018-09-08T05:25:37.674Z,16.9
2018-09-08T05:30:50.318Z,16.9
2018-09-08T05:35:49.888Z,16.9
2018-09-08T05:40:49.878Z,16.9
2018-09-08T05:45:49.926Z,17
2018-09-08T05:50:49.948Z,17
2018-09-08T05:55:49.942Z,17.1
2018-09-08T06:00:50.094Z,17.1
2018-09-08T06:05:49.939Z,17.2
2018-09-08T06:10:49.961Z,17.2
2018-09-08T06:15:49.903Z,17.2
2018-09-08T06:20:49.951Z,17.3
2018-09-08T06:25:50.024Z,17.3
2018-09-08T06:30:49.939Z,17.4
2018-09-08T06:35:49.968Z,17.5
2018-09-08T06:41:01.502Z,17.5
2018-09-08T06:46:01.146Z,17.6
2018-09-08T06:51:01.217Z,17.7
2018-09-08T06:56:01.867Z,17.8
2018-09-08T07:01:01.199Z,17.9
2018-09-08T07:06:01.227Z,18
2018-09-08T07:11:01.220Z,18.1
2018-09-08T07:16:04.014Z,18.3
2018-09-08T07:21:04.337Z,18.6
2018-09-08T07:26:03.460Z,18.8
2018-09-08T07:31:03.524Z,18.9
2018-09-08T07:36:03.512Z,18.7
2018-09-08T07:41:03.550Z,18.7
2018-09-08T07:46:03.056Z,18.7
2018-09-08T07:51:02.999Z,18.7
2018-09-08T07:56:05.030Z,18.7
2018-09-08T08:01:05.037Z,18.7
2018-09-08T08:06:06.756Z,19
2018-09-08T08:11:06.466Z,19.2
2018-09-08T08:16:19.255Z,19.1
2018-09-08T08:21:18.958Z,19.1
2018-09-08T08:26:18.989Z,19.2
2018-09-08T08:31:18.989Z,19.1
2018-09-08T08:36:18.979Z,18.9
2018-09-08T08:41:18.995Z,19.4
2018-09-08T08:46:19.048Z,19.7
2018-09-08T08:51:19.046Z,19.9
2018-09-08T08:56:19.038Z,20.5
2018-09-08T09:01:19.051Z,20.4
2018-09-08T09:06:19.053Z,20.3
2018-09-08T09:11:19.256Z,20.5
2018-09-08T09:16:19.465Z,20.5
2018-09-08T09:21:19.194Z,20.5
2018-09-08T09:26:31.575Z,20.7
2018-09-08T09:31:31.270Z,20.9
2018-09-08T09:36:31.279Z,21.1
2018-09-08T09:41:31.264Z,20.9
2018-09-08T09:46:31.285Z,21
2018-09-08T09:51:31.304Z,21.7
2018-09-08T09:56:31.304Z,22.1
2018-09-08T10:01:31.925Z,22.8
2018-09-08T10:06:31.675Z,22.9
2018-09-08T10:11:43.980Z,22.6
2018-09-08T10:16:43.883Z,22.6
2018-09-08T10:21:43.719Z,22.5
2018-09-08T10:26:43.733Z,22.4
2018-09-08T10:31:43.979Z,21.9
2018-09-08T10:36:43.726Z,22.1
2018-09-08T10:41:43.721Z,22.3
2018-09-08T10:46:43.722Z,22.6
2018-09-08T10:51:43.746Z,22.9
2018-09-08T10:56:44.134Z,23
2018-09-08T11:01:44.120Z,23.6
2018-09-08T11:06:44.218Z,23.7
2018-09-08T11:11:46.754Z,23.4
2018-09-08T11:16:46.488Z,23.4
2018-09-08T11:21:58.925Z,23.4
2018-09-08T11:26:58.883Z,23.3
2018-09-08T11:31:58.654Z,23.1
2018-09-08T11:36:58.855Z,23.2
2018-09-08T11:41:58.639Z,23.7
2018-09-08T11:46:58.657Z,23.9
2018-09-08T11:51:58.661Z,24.1
2018-09-08T11:57:00.438Z,24.5
2018-09-08T12:02:00.345Z,24.8
2018-09-08T12:07:10.857Z,24.8
2018-09-08T12:12:10.757Z,23.7
2018-09-08T12:17:10.598Z,23.6
2018-09-08T12:22:10.610Z,23.9
2018-09-08T12:27:10.575Z,24.2
2018-09-08T12:32:11.062Z,23.6
2018-09-08T12:37:10.826Z,23.9
2018-09-08T12:42:10.774Z,23.7
2018-09-08T12:47:10.793Z,23.8
2018-09-08T12:52:10.845Z,23.8
2018-09-08T12:57:10.866Z,23.9
2018-09-08T13:02:10.810Z,23.7
2018-09-08T13:07:11.034Z,23.6
2018-09-08T13:12:11.059Z,23.1
2018-09-08T13:17:23.632Z,23.1
2018-09-08T13:22:23.365Z,23.3
2018-09-08T13:27:23.376Z,23.5
2018-09-08T13:32:23.344Z,23.8
2018-09-08T13:37:23.377Z,23.9
2018-09-08T13:42:23.386Z,24.3
2018-09-08T13:47:23.455Z,24.5
2018-09-08T13:52:28.246Z,24.6
2018-09-08T13:57:27.989Z,24.1
2018-09-08T14:02:39.379Z,23.8
2018-09-08T14:07:39.072Z,23.9
2018-09-08T14:12:39.094Z,24.1
2018-09-08T14:17:39.083Z,24.1
2018-09-08T14:22:39.039Z,24.3
2018-09-08T14:27:39.247Z,23.8
2018-09-08T14:32:39.055Z,24.2
2018-09-08T14:37:39.093Z,24.1
2018-09-08T14:42:39.106Z,24.3
2018-09-08T14:47:39.319Z,24.3
2018-09-08T14:52:39.298Z,24
2018-09-08T14:57:39.096Z,24.2
2018-09-08T15:02:39.846Z,24
2018-09-08T15:07:39.551Z,23.8
2018-09-08T15:12:51.754Z,23.7
2018-09-08T15:17:51.455Z,23.8
2018-09-08T15:22:51.708Z,23.7
2018-09-08T15:27:51.631Z,23.5
2018-09-08T15:32:51.725Z,23.5
2018-09-08T15:37:51.496Z,23.5
2018-09-08T15:42:51.615Z,23.5
2018-09-08T15:47:51.648Z,23.3
2018-09-08T15:52:51.509Z,23.2
2018-09-08T15:57:51.621Z,23.2
2018-09-08T16:02:51.506Z,23.1
2018-09-08T16:07:51.631Z,23
2018-09-08T16:12:53.011Z,22.9
2018-09-08T16:17:52.684Z,22.8
2018-09-08T16:23:05.456Z,22.7
2018-09-08T16:28:05.172Z,22.6
2018-09-08T16:33:05.177Z,22.5
2018-09-08T16:38:05.191Z,22.5
2018-09-08T16:43:05.165Z,22.4
2018-09-08T16:48:05.192Z,22.2
2018-09-08T16:53:05.144Z,22
2018-09-08T16:58:05.286Z,21.9
2018-09-08T17:03:05.320Z,21.7
2018-09-08T17:08:17.538Z,21.5
2018-09-08T17:13:17.252Z,21.3
2018-09-08T17:18:17.264Z,21
2018-09-08T17:23:17.393Z,20.9
2018-09-08T17:28:17.440Z,20.7
2018-09-08T17:33:17.475Z,20.6
2018-09-08T17:38:17.262Z,20.3
2018-09-08T17:43:18.439Z,20.2
2018-09-08T17:48:18.174Z,19.9
2018-09-08T17:53:30.208Z,19.7
2018-09-08T17:58:29.917Z,19.6
2018-09-08T18:03:29.929Z,19.4
2018-09-08T18:08:30.059Z,19.3
2018-09-08T18:13:30.079Z,19.1
2018-09-08T18:18:30.061Z,18.9
2018-09-08T18:23:30.077Z,18.7
2018-09-08T18:28:30.909Z,18.7
2018-09-08T18:33:31.681Z,18.4
2018-09-08T18:38:43.110Z,18.4
2018-09-08T18:43:42.841Z,18
2018-09-08T18:48:42.791Z,17.9
2018-09-08T18:53:42.855Z,17.8
2018-09-08T18:58:43.029Z,17.9
2018-09-08T19:03:42.912Z,17.8
2018-09-08T19:08:42.800Z,17.6
2018-09-08T19:13:42.866Z,17.6
2018-09-08T19:18:42.890Z,17.5
2018-09-08T19:23:55.035Z,17.4
2018-09-08T19:28:54.759Z,17.2
2018-09-08T19:33:54.817Z,17.1
2018-09-08T19:38:54.756Z,17.1
2018-09-08T19:43:54.847Z,17
2018-09-08T19:48:54.865Z,16.9
2018-09-08T19:53:54.869Z,16.9
2018-09-08T19:58:54.884Z,16.8
2018-09-08T20:09:06.132Z,16.7
2018-09-08T20:14:05.867Z,16.6
2018-09-08T20:19:05.844Z,16.6
2018-09-08T20:24:05.965Z,16.5
2018-09-08T20:29:05.865Z,16.4
2018-09-08T20:39:05.919Z,16.2
2018-09-08T20:44:07.290Z,16.1
2018-09-08T20:49:07.001Z,16.1
2018-09-08T20:54:19.379Z,16
2018-09-08T20:59:19.111Z,15.9
2018-09-08T21:09:19.118Z,15.8
2018-09-08T21:19:19.149Z,15.7
2018-09-08T21:24:19.382Z,15.6
2018-09-08T21:29:19.135Z,15.6
2018-09-08T21:34:19.326Z,15.6
2018-09-08T21:39:31.248Z,15.5
2018-09-08T21:44:30.965Z,15.4
2018-09-08T21:49:30.986Z,15.3
2018-09-08T21:54:31.015Z,15.2
2018-09-08T21:59:31.175Z,15
2018-09-08T22:04:30.977Z,15.2
2018-09-08T22:09:30.991Z,15.1
2018-09-08T22:14:32.741Z,15.1
2018-09-08T22:19:33.698Z,15.1
2018-09-08T22:24:45.497Z,15
2018-09-08T22:29:45.170Z,14.9
2018-09-08T22:34:46.268Z,14.8
2018-09-08T22:39:45.293Z,14.8
2018-09-08T22:44:45.312Z,14.7
2018-09-08T22:49:45.308Z,14.6
2018-09-08T22:54:45.327Z,14.7
2018-09-08T22:59:45.417Z,14.6
2018-09-08T23:04:45.467Z,14.6
2018-09-08T23:09:57.573Z,14.5
2018-09-08T23:14:57.251Z,14.5
2018-09-08T23:19:57.242Z,14.5
2018-09-08T23:24:57.262Z,14.5
2018-09-08T23:29:57.307Z,14.6
2018-09-08T23:34:57.968Z,14.5
2018-09-08T23:39:57.638Z,14.5
2018-09-08T23:44:57.674Z,14.5
2018-09-08T23:49:57.708Z,14.4
2018-09-08T23:54:57.748Z,14.4
2018-09-08T23:59:57.760Z,14.4
